Time,TemperatureF,DewpointF,PressureIn,WindDirection,WindDirectionDegrees,WindSpeedMPH,WindSpeedGustMPH,Humidity,HourlyPrecipIn,Conditions,Clouds,dailyrainin,SoftwareType,DateUTC
2013-06-03 00:03:00,80.0,-99.9,29.96,SW,216,11.0,13.0,-999,-99.99,,,-99.99,,2013-06-03 04:03:00,
2013-06-03 00:13:00,80.0,-99.9,29.96,SW,223,11.0,13.0,-999,-99.99,,,-99.99,,2013-06-03 04:13:00,
2013-06-03 00:23:00,80.0,-99.9,29.95,SW,215,12.0,13.0,-999,-99.99,,,-99.99,,2013-06-03 04:23:00,
2013-06-03 00:33:00,80.0,-99.9,29.95,SW,221,11.0,13.0,-999,-99.99,,,-99.99,,2013-06-03 04:33:00,
2013-06-03 00:42:00,80.0,-99.9,29.95,SW,226,11.0,12.0,-999,-99.99,,,-99.99,,2013-06-03 04:42:00,
2013-06-03 00:53:00,80.0,-99.9,29.94,SW,218,9.0,11.0,-999,-99.99,,,-99.99,,2013-06-03 04:53:00,
2013-06-03 01:03:00,80.0,-99.9,29.93,SW,215,10.0,12.0,-999,-99.99,,,-99.99,,2013-06-03 05:03:00,
2013-06-03 01:13:00,80.0,-99.9,29.93,SW,215,10.0,12.0,-999,-99.99,,,-99.99,,2013-06-03 05:13:00,
2013-06-03 01:22:00,80.0,-99.9,29.94,SSW,207,11.0,12.0,-999,-99.99,,,-99.99,,2013-06-03 05:22:00,
2013-06-03 01:32:00,80.0,-99.9,29.94,SSW,213,9.0,12.0,-999,-99.99,,,-99.99,,2013-06-03 05:32:00,
2013-06-03 01:43:00,80.0,-99.9,29.94,SW,214,9.0,11.0,-999,-99.99,,,-99.99,,2013-06-03 05:43:00,
2013-06-03 01:52:00,80.0,-99.9,29.93,South,191,10.0,12.0,-999,-99.99,,,-99.99,,2013-06-03 05:52:00,
2013-06-03 02:02:00,80.0,-99.9,29.93,South,189,7.0,12.0,-999,-99.99,,,-99.99,,2013-06-03 06:02:00,
2013-06-03 02:12:00,79.0,-99.9,29.93,South,180,8.0,9.0,-999,-99.99,,,-99.99,,2013-06-03 06:12:00,
2013-06-03 02:22:00,79.0,-99.9,29.93,South,185,8.0,11.0,-999,-99.99,,,-99.99,,2013-06-03 06:22:00,
2013-06-03 02:32:00,80.0,-99.9,29.93,SSW,192,9.0,11.0,-999,-99.99,,,-99.99,,2013-06-03 06:32:00,
2013-06-03 02:42:00,80.0,-99.9,29.93,SSW,193,8.0,11.0,-999,-99.99,,,-99.99,,2013-06-03 06:42:00,
2013-06-03 02:53:00,79.0,-99.9,29.93,South,183,7.0,9.0,-999,-99.99,,,-99.99,,2013-06-03 06:53:00,
2013-06-03 03:02:00,79.0,-99.9,29.92,South,172,6.0,7.0,-999,-99.99,,,-99.99,,2013-06-03 07:02:00,
2013-06-03 03:12:00,79.0,-99.9,29.92,SSE,165,5.0,7.0,-999,-99.99,,,-99.99,,2013-06-03 07:12:00,
2013-06-03 03:22:00,79.0,-99.9,29.92,South,175,5.0,6.0,-999,-99.99,,,-99.99,,2013-06-03 07:22:00,
2013-06-03 03:32:00,79.0,-99.9,29.92,South,177,4.0,5.0,-999,-99.99,,,-99.99,,2013-06-03 07:32:00,
2013-06-03 03:42:00,79.0,-99.9,29.91,South,186,4.0,5.0,-999,-99.99,,,-99.99,,2013-06-03 07:42:00,
2013-06-03 03:52:00,79.0,-99.9,29.91,South,177,4.0,5.0,-999,-99.99,,,-99.99,,2013-06-03 07:52:00,
2013-06-03 04:02:00,79.0,-99.9,29.91,SSE,149,3.0,6.0,-999,-99.99,,,-99.99,,2013-06-03 08:02:00,
2013-06-03 04:12:00,79.0,-99.9,29.91,SSE,149,3.0,6.0,-999,-99.99,,,-99.99,,2013-06-03 08:12:00,
2013-06-03 04:22:00,79.0,-99.9,29.90,South,170,6.0,7.0,-999,-99.99,,,-99.99,,2013-06-03 08:22:00,
2013-06-03 04:32:00,79.0,-99.9,29.90,SSE,157,5.0,6.0,-999,-99.99,,,-99.99,,2013-06-03 08:32:00,
2013-06-03 04:42:00,78.0,-99.9,29.90,SSE,148,4.0,6.0,-999,-99.99,,,-99.99,,2013-06-03 08:42:00,
2013-06-03 04:52:00,78.0,-99.9,29.90,SSE,165,4.0,4.0,-999,-99.99,,,-99.99,,2013-06-03 08:52:00,
2013-06-03 05:02:00,78.0,-99.9,29.90,South,177,5.0,6.0,-999,-99.99,,,-99.99,,2013-06-03 09:02:00,
2013-06-03 05:12:00,78.0,-99.9,29.91,South,178,4.0,5.0,-999,-99.99,,,-99.99,,2013-06-03 09:12:00,
2013-06-03 05:22:00,78.0,-99.9,29.91,South,174,5.0,6.0,-999,-99.99,,,-99.99,,2013-06-03 09:22:00,
2013-06-03 05:33:00,78.0,-99.9,29.91,SSE,167,4.0,5.0,-999,-99.99,,,-99.99,,2013-06-03 09:33:00,
2013-06-03 05:43:00,78.0,-99.9,29.91,South,173,5.0,5.0,-999,-99.99,,,-99.99,,2013-06-03 09:43:00,
2013-06-03 05:53:00,78.0,-99.9,29.91,South,174,5.0,6.0,-999,-99.99,,,-99.99,,2013-06-03 09:53:00,
2013-06-03 06:03:00,78.0,-99.9,29.91,SSE,167,6.0,7.0,-999,-99.99,,,-99.99,,2013-06-03 10:03:00,
2013-06-03 06:13:00,78.0,-99.9,29.91,South,169,5.0,7.0,-999,-99.99,,,-99.99,,2013-06-03 10:13:00,
2013-06-03 06:22:00,79.0,-99.9,29.92,South,174,5.0,6.0,-999,-99.99,,,-99.99,,2013-06-03 10:22:00,
2013-06-03 06:33:00,79.0,-99.9,29.92,SE,138,4.0,7.0,-999,-99.99,,,-99.99,,2013-06-03 10:33:00,
2013-06-03 06:42:00,78.0,-99.9,29.92,SE,142,3.0,5.0,-999,-99.99,,,-99.99,,2013-06-03 10:42:00,
2013-06-03 06:53:00,78.0,-99.9,29.92,SE,138,4.0,5.0,-999,-99.99,,,-99.99,,2013-06-03 10:53:00,
2013-06-03 07:03:00,78.0,-99.9,29.92,South,172,6.0,7.0,-999,-99.99,,,-99.99,,2013-06-03 11:03:00,
2013-06-03 07:12:00,78.0,-99.9,29.92,South,175,4.0,6.0,-999,-99.99,,,-99.99,,2013-06-03 11:12:00,
2013-06-03 07:22:00,78.0,-99.9,29.92,South,173,5.0,7.0,-999,-99.99,,,-99.99,,2013-06-03 11:22:00,
2013-06-03 07:32:00,78.0,-99.9,29.92,SSE,165,5.0,7.0,-999,-99.99,,,-99.99,,2013-06-03 11:32:00,
2013-06-03 07:42:00,78.0,-99.9,29.92,SSE,153,5.0,7.0,-999,-99.99,,,-99.99,,2013-06-03 11:42:00,
2013-06-03 07:52:00,78.0,-99.9,29.92,SSE,157,4.0,6.0,-999,-99.99,,,-99.99,,2013-06-03 11:52:00,
2013-06-03 08:02:00,79.0,-99.9,29.92,SSE,165,4.0,5.0,-999,-99.99,,,-99.99,,2013-06-03 12:02:00,
2013-06-03 08:12:00,79.0,-99.9,29.93,SSE,147,4.0,7.0,-999,-99.99,,,-99.99,,2013-06-03 12:12:00,
2013-06-03 08:22:00,79.0,-99.9,29.93,SSE,159,3.0,4.0,-999,-99.99,,,-99.99,,2013-06-03 12:22:00,
2013-06-03 08:32:00,79.0,-99.9,29.93,South,178,5.0,6.0,-999,-99.99,,,-99.99,,2013-06-03 12:32:00,
2013-06-03 08:42:00,79.0,-99.9,29.94,South,183,6.0,6.0,-999,-99.99,,,-99.99,,2013-06-03 12:42:00,
2013-06-03 08:52:00,79.0,-99.9,29.95,South,181,6.0,8.0,-999,-99.99,,,-99.99,,2013-06-03 12:52:00,
2013-06-03 09:02:00,79.0,-99.9,29.95,SSE,160,5.0,8.0,-999,-99.99,,,-99.99,,2013-06-03 13:02:00,
2013-06-03 09:12:00,79.0,-99.9,29.95,South,181,7.0,10.0,-999,-99.99,,,-99.99,,2013-06-03 13:12:00,
2013-06-03 09:22:00,80.0,-99.9,29.95,SSW,192,8.0,9.0,-999,-99.99,,,-99.99,,2013-06-03 13:22:00,
2013-06-03 09:33:00,80.0,-99.9,29.95,SW,215,10.0,13.0,-999,-99.99,,,-99.99,,2013-06-03 13:33:00,
2013-06-03 09:43:00,80.0,-99.9,29.95,SSW,209,12.0,13.0,-999,-99.99,,,-99.99,,2013-06-03 13:43:00,
2013-06-03 09:53:00,79.0,-99.9,29.96,South,191,10.0,13.0,-999,-99.99,,,-99.99,,2013-06-03 13:53:00,
2013-06-03 10:02:00,80.0,-99.9,29.96,South,189,7.0,11.0,-999,-99.99,,,-99.99,,2013-06-03 14:02:00,
2013-06-03 10:13:00,80.0,-99.9,29.95,SSW,203,9.0,11.0,-999,-99.99,,,-99.99,,2013-06-03 14:13:00,
2013-06-03 10:22:00,80.0,-99.9,29.95,SSW,196,9.0,11.0,-999,-99.99,,,-99.99,,2013-06-03 14:22:00,
2013-06-03 10:33:00,80.0,-99.9,29.95,SSW,203,9.0,12.0,-999,-99.99,,,-99.99,,2013-06-03 14:33:00,
2013-06-03 10:42:00,80.0,-99.9,29.96,SSW,210,9.0,12.0,-999,-99.99,,,-99.99,,2013-06-03 14:42:00,
2013-06-03 10:52:00,80.0,-99.9,29.96,SSW,208,12.0,14.0,-999,-99.99,,,-99.99,,2013-06-03 14:52:00,
2013-06-03 11:02:00,80.0,-99.9,29.96,SSW,208,11.0,16.0,-999,-99.99,,,-99.99,,2013-06-03 15:02:00,
2013-06-03 11:12:00,80.0,-99.9,29.96,SW,219,13.0,15.0,-999,-99.99,,,-99.99,,2013-06-03 15:12:00,
2013-06-03 11:22:00,80.0,-99.9,29.96,SW,217,12.0,14.0,-999,-99.99,,,-99.99,,2013-06-03 15:22:00,
2013-06-03 11:33:00,80.0,-99.9,29.95,SW,215,12.0,13.0,-999,-99.99,,,-99.99,,2013-06-03 15:33:00,
2013-06-03 11:43:00,80.0,-99.9,29.96,SW,221,12.0,14.0,-999,-99.99,,,-99.99,,2013-06-03 15:43:00,
2013-06-03 11:53:00,80.0,-99.9,29.96,SW,217,12.0,14.0,-999,-99.99,,,-99.99,,2013-06-03 15:53:00,
2013-06-03 12:03:00,80.0,-99.9,29.96,SW,217,11.0,13.0,-999,-99.99,,,-99.99,,2013-06-03 16:03:00,
2013-06-03 12:13:00,80.0,-99.9,29.96,SW,217,10.0,12.0,-999,-99.99,,,-99.99,,2013-06-03 16:13:00,
2013-06-03 12:23:00,80.0,-99.9,29.96,SW,218,10.0,11.0,-999,-99.99,,,-99.99,,2013-06-03 16:23:00,
2013-06-03 12:33:00,80.0,-99.9,29.96,SW,219,12.0,14.0,-999,-99.99,,,-99.99,,2013-06-03 16:33:00,
2013-06-03 12:42:00,80.0,-99.9,29.96,SW,215,11.0,13.0,-999,-99.99,,,-99.99,,2013-06-03 16:42:00,
2013-06-03 12:54:00,80.0,-99.9,29.96,SW,218,13.0,15.0,-999,-99.99,,,-99.99,,2013-06-03 16:54:00,
2013-06-03 13:02:00,80.0,-99.9,29.96,SW,215,16.0,17.0,-999,-99.99,,,-99.99,,2013-06-03 17:02:00,
2013-06-03 13:12:00,80.0,-99.9,29.96,SSW,212,14.0,17.0,-999,-99.99,,,-99.99,,2013-06-03 17:12:00,
2013-06-03 13:22:00,80.0,-99.9,29.96,SW,217,14.0,15.0,-999,-99.99,,,-99.99,,2013-06-03 17:22:00,
2013-06-03 13:33:00,80.0,-99.9,29.96,SSW,210,11.0,12.0,-999,-99.99,,,-99.99,,2013-06-03 17:33:00,
2013-06-03 13:42:00,80.0,-99.9,29.96,SSW,213,12.0,13.0,-999,-99.99,,,-99.99,,2013-06-03 17:42:00,
2013-06-03 13:52:00,80.0,-99.9,29.95,SSW,206,13.0,15.0,-999,-99.99,,,-99.99,,2013-06-03 17:52:00,
2013-06-03 14:03:00,80.0,-99.9,29.94,SSW,212,13.0,15.0,-999,-99.99,,,-99.99,,2013-06-03 18:03:00,
2013-06-03 14:12:00,80.0,-99.9,29.94,SW,215,13.0,14.0,-999,-99.99,,,-99.99,,2013-06-03 18:12:00,
2013-06-03 14:22:00,80.0,-99.9,29.94,SW,224,11.0,12.0,-999,-99.99,,,-99.99,,2013-06-03 18:22:00,
2013-06-03 14:32:00,80.0,-99.9,29.94,SW,218,11.0,13.0,-999,-99.99,,,-99.99,,2013-06-03 18:32:00,
2013-06-03 14:43:00,80.0,-99.9,29.94,SW,217,14.0,15.0,-999,-99.99,,,-99.99,,2013-06-03 18:43:00,
2013-06-03 14:53:00,79.0,-99.9,29.94,SW,221,19.0,22.0,-999,-99.99,,,-99.99,,2013-06-03 18:53:00,
2013-06-03 15:03:00,79.0,-99.9,29.94,SW,218,16.0,19.0,-999,-99.99,,,-99.99,,2013-06-03 19:03:00,
2013-06-03 15:12:00,79.0,-99.9,29.94,SW,229,16.0,18.0,-999,-99.99,,,-99.99,,2013-06-03 19:12:00,
2013-06-03 15:23:00,79.0,-99.9,29.94,SW,236,16.0,19.0,-999,-99.99,,,-99.99,,2013-06-03 19:23:00,
2013-06-03 15:33:00,79.0,-99.9,29.93,SW,232,17.0,20.0,-999,-99.99,,,-99.99,,2013-06-03 19:33:00,
2013-06-03 15:42:00,79.0,-99.9,29.93,SW,222,16.0,19.0,-999,-99.99,,,-99.99,,2013-06-03 19:42:00,
2013-06-03 15:53:00,79.0,-99.9,29.93,SW,221,16.0,17.0,-999,-99.99,,,-99.99,,2013-06-03 19:53:00,
2013-06-03 16:02:00,79.0,-99.9,29.93,SW,224,16.0,18.0,-999,-99.99,,,-99.99,,2013-06-03 20:02:00,
2013-06-03 16:13:00,79.0,-99.9,29.93,SW,225,16.0,18.0,-999,-99.99,,,-99.99,,2013-06-03 20:13:00,
2013-06-03 16:22:00,79.0,-99.9,29.93,WSW,242,16.0,19.0,-999,-99.99,,,-99.99,,2013-06-03 20:22:00,
2013-06-03 16:33:00,79.0,-99.9,29.93,SW,230,14.0,15.0,-999,-99.99,,,-99.99,,2013-06-03 20:33:00,
2013-06-03 16:43:00,79.0,-99.9,29.92,WSW,237,14.0,16.0,-999,-99.99,,,-99.99,,2013-06-03 20:43:00,
2013-06-03 16:53:00,79.0,-99.9,29.92,SW,233,14.0,16.0,-999,-99.99,,,-99.99,,2013-06-03 20:53:00,
2013-06-03 17:03:00,79.0,-99.9,29.92,SW,227,13.0,15.0,-999,-99.99,,,-99.99,,2013-06-03 21:03:00,
2013-06-03 17:12:00,79.0,-99.9,29.92,SW,230,15.0,17.0,-999,-99.99,,,-99.99,,2013-06-03 21:12:00,
2013-06-03 17:22:00,79.0,-99.9,29.92,SW,228,15.0,17.0,-999,-99.99,,,-99.99,,2013-06-03 21:22:00,
2013-06-03 17:33:00,80.0,-99.9,29.92,SW,234,15.0,17.0,-999,-99.99,,,-99.99,,2013-06-03 21:33:00,
2013-06-03 17:43:00,79.0,-99.9,29.92,SW,231,14.0,17.0,-999,-99.99,,,-99.99,,2013-06-03 21:43:00,
2013-06-03 17:53:00,79.0,-99.9,29.91,SW,229,14.0,17.0,-999,-99.99,,,-99.99,,2013-06-03 21:53:00,
2013-06-03 18:03:00,79.0,-99.9,29.91,SW,229,16.0,18.0,-999,-99.99,,,-99.99,,2013-06-03 22:03:00,
2013-06-03 18:13:00,80.0,-99.9,29.91,SW,223,15.0,17.0,-999,-99.99,,,-99.99,,2013-06-03 22:13:00,
2013-06-03 18:23:00,80.0,-99.9,29.91,SW,214,15.0,17.0,-999,-99.99,,,-99.99,,2013-06-03 22:23:00,
2013-06-03 18:33:00,80.0,-99.9,29.91,SW,214,16.0,18.0,-999,-99.99,,,-99.99,,2013-06-03 22:33:00,
2013-06-03 18:42:00,79.0,-99.9,29.91,SSW,213,17.0,19.0,-999,-99.99,,,-99.99,,2013-06-03 22:42:00,
2013-06-03 18:53:00,79.0,-99.9,29.91,SW,216,17.0,19.0,-999,-99.99,,,-99.99,,2013-06-03 22:53:00,
2013-06-03 19:02:00,79.0,-99.9,29.91,SW,219,15.0,17.0,-999,-99.99,,,-99.99,,2013-06-03 23:02:00,
2013-06-03 19:12:00,79.0,-99.9,29.92,SW,218,17.0,19.0,-999,-99.99,,,-99.99,,2013-06-03 23:12:00,
2013-06-03 19:23:00,79.0,-99.9,29.92,SW,214,16.0,18.0,-999,-99.99,,,-99.99,,2013-06-03 23:23:00,
2013-06-03 19:32:00,79.0,-99.9,29.93,SSW,210,17.0,19.0,-999,-99.99,,,-99.99,,2013-06-03 23:32:00,
2013-06-03 19:42:00,80.0,-99.9,29.93,SSW,209,19.0,21.0,-999,-99.99,,,-99.99,,2013-06-03 23:42:00,
2013-06-03 19:52:00,80.0,-99.9,29.93,SSW,211,20.0,23.0,-999,-99.99,,,-99.99,,2013-06-03 23:52:00,
2013-06-03 20:02:00,79.0,-99.9,29.93,SSW,200,20.0,23.0,-999,-99.99,,,-99.99,,2013-06-04 00:02:00,
2013-06-03 20:12:00,79.0,-99.9,29.93,SSW,197,19.0,23.0,-999,-99.99,,,-99.99,,2013-06-04 00:12:00,
2013-06-03 20:22:00,79.0,-99.9,29.94,SSW,197,19.0,22.0,-999,-99.99,,,-99.99,,2013-06-04 00:22:00,
2013-06-03 20:32:00,79.0,-99.9,29.94,SSW,194,18.0,22.0,-999,-99.99,,,-99.99,,2013-06-04 00:32:00,
2013-06-03 20:42:00,79.0,-99.9,29.93,SSW,202,19.0,21.0,-999,-99.99,,,-99.99,,2013-06-04 00:42:00,
2013-06-03 20:52:00,79.0,-99.9,29.93,SSW,205,16.0,20.0,-999,-99.99,,,-99.99,,2013-06-04 00:52:00,
2013-06-03 21:02:00,79.0,-99.9,29.93,SSW,199,15.0,19.0,-999,-99.99,,,-99.99,,2013-06-04 01:02:00,
2013-06-03 21:12:00,79.0,-99.9,29.93,SSW,197,14.0,18.0,-999,-99.99,,,-99.99,,2013-06-04 01:12:00,
2013-06-03 21:22:00,79.0,-99.9,29.93,SSW,209,15.0,19.0,-999,-99.99,,,-99.99,,2013-06-04 01:22:00,
2013-06-03 21:32:00,79.0,-99.9,29.93,SW,214,18.0,20.0,-999,-99.99,,,-99.99,,2013-06-04 01:32:00,
2013-06-03 21:42:00,79.0,-99.9,29.93,SSW,207,17.0,20.0,-999,-99.99,,,-99.99,,2013-06-04 01:42:00,
2013-06-03 21:53:00,79.0,-99.9,29.94,SSW,213,17.0,20.0,-999,-99.99,,,-99.99,,2013-06-04 01:53:00,
2013-06-03 22:03:00,79.0,-99.9,29.94,SSW,200,15.0,20.0,-999,-99.99,,,-99.99,,2013-06-04 02:03:00,
2013-06-03 22:12:00,79.0,-99.9,29.94,SSW,196,14.0,18.0,-999,-99.99,,,-99.99,,2013-06-04 02:12:00,
2013-06-03 22:22:00,79.0,-99.9,29.96,SSW,205,16.0,18.0,-999,-99.99,,,-99.99,,2013-06-04 02:22:00,
2013-06-03 22:32:00,79.0,-99.9,29.97,SSW,205,14.0,16.0,-999,-99.99,,,-99.99,,2013-06-04 02:32:00,
2013-06-03 22:42:00,79.0,-99.9,29.98,SSW,207,15.0,17.0,-999,-99.99,,,-99.99,,2013-06-04 02:42:00,
2013-06-03 22:52:00,79.0,-99.9,29.98,SW,214,13.0,16.0,-999,-99.99,,,-99.99,,2013-06-04 02:52:00,
2013-06-03 23:02:00,79.0,-99.9,29.98,SSW,208,14.0,16.0,-999,-99.99,,,-99.99,,2013-06-04 03:02:00,
2013-06-03 23:12:00,79.0,-99.9,29.98,SSW,202,13.0,15.0,-999,-99.99,,,-99.99,,2013-06-04 03:12:00,
2013-06-03 23:23:00,79.0,-99.9,29.99,SSW,206,13.0,16.0,-999,-99.99,,,-99.99,,2013-06-04 03:23:00,
2013-06-03 23:33:00,79.0,-99.9,29.99,SSW,201,15.0,17.0,-999,-99.99,,,-99.99,,2013-06-04 03:33:00,
2013-06-03 23:43:00,79.0,-99.9,29.99,SSW,196,13.0,17.0,-999,-99.99,,,-99.99,,2013-06-04 03:43:00,
2013-06-03 23:54:00,79.0,-99.9,30.00,SSW,201,12.0,14.0,-999,-99.99,,,-99.99,,2013-06-04 03:54:00,